createdAt,value
2022-11-29T00:02:53.215Z,52.50
2022-11-29T00:05:40.932Z,52.05
2022-11-29T00:12:01.125Z,55.47
2022-11-29T00:14:47.272Z,51.45
2022-11-29T00:17:33.265Z,50.20
2022-11-29T00:20:19.528Z,58.05
2022-11-29T00:23:05.447Z,54.78
2022-11-29T00:25:52.345Z,50.47
2022-11-29T00:28:38.360Z,58.13
2022-11-29T00:31:25.642Z,50.72
2022-11-29T00:34:12.052Z,46.33
2022-11-29T00:36:58.127Z,58.72
2022-11-29T00:39:43.767Z,52.58
2022-11-29T00:42:29.928Z,51.80
2022-11-29T00:45:15.927Z,49.35
2022-11-29T00:48:02.123Z,49.80
2022-11-29T00:50:47.543Z,51.33
2022-11-29T00:53:34.388Z,55.55
2022-11-29T00:56:20.178Z,53.22
2022-11-29T00:59:06.324Z,48.17
2022-11-29T01:01:52.039Z,46.22
2022-11-29T01:04:38.267Z,50.38
2022-11-29T01:07:24.288Z,48.85
2022-11-29T01:10:10.265Z,44.25
2022-11-29T01:12:55.940Z,51.92
2022-11-29T01:15:42.099Z,48.17
2022-11-29T01:18:28.029Z,47.33
2022-11-29T01:21:16.667Z,47.60
2022-11-29T01:24:02.761Z,46.55
2022-11-29T01:26:48.793Z,49.50
2022-11-29T01:29:34.568Z,49.60
2022-11-29T01:32:20.557Z,55.35
2022-11-29T01:35:06.945Z,53.70
2022-11-29T01:37:52.719Z,43.80
2022-11-29T01:40:38.529Z,54.40
2022-11-29T01:43:24.720Z,44.53
2022-11-29T01:45:59.896Z,48.60
2022-11-29T01:48:29.872Z,44.35
2022-11-29T01:50:59.586Z,44.40
2022-11-29T01:53:27.796Z,42.80
2022-11-29T01:55:57.680Z,42.85
2022-11-29T01:58:25.327Z,44.35
2022-11-29T02:07:32.808Z,38.47
2022-11-29T02:10:03.597Z,39.50
2022-11-29T02:12:36.687Z,46.50
2022-11-29T02:15:22.922Z,47.08
2022-11-29T02:18:11.353Z,47.17
2022-11-29T02:20:59.257Z,50.60
2022-11-29T02:23:45.461Z,41.20
2022-11-29T02:26:31.678Z,42.20
2022-11-29T02:29:11.098Z,43.72
2022-11-29T02:31:53.834Z,45.33
2022-11-29T02:34:44.704Z,35.78
2022-11-29T02:37:24.840Z,39.83
2022-11-29T02:39:52.258Z,37.80
2022-11-29T02:42:38.451Z,37.03
2022-11-29T02:45:05.741Z,42.35
2022-11-29T02:47:33.302Z,39.05
2022-11-29T02:50:17.958Z,35.83
2022-11-29T02:52:57.601Z,38.60
2022-11-29T02:55:28.674Z,38.25
2022-11-29T02:58:14.836Z,36.35
2022-11-29T03:00:47.824Z,38.35
2022-11-29T03:03:21.363Z,42.22
2022-11-29T03:06:04.202Z,38.65
2022-11-29T03:08:41.218Z,31.50
2022-11-29T03:11:34.557Z,34.13
2022-11-29T03:14:24.131Z,36.95
2022-11-29T03:16:59.624Z,33.05
2022-11-29T03:19:43.829Z,29.30
2022-11-29T03:22:11.130Z,38.70
2022-11-29T03:24:41.622Z,34.00
2022-11-29T03:27:22.488Z,35.60
2022-11-29T03:29:50.093Z,33.67
2022-11-29T03:32:20.759Z,36.53
2022-11-29T03:34:51.733Z,40.50
2022-11-29T03:37:41.852Z,34.70
2022-11-29T03:40:12.609Z,31.38
2022-11-29T03:42:48.750Z,31.92
2022-11-29T03:45:21.216Z,35.95
2022-11-29T03:47:48.561Z,34.88
2022-11-29T03:50:19.306Z,30.92
2022-11-29T03:52:46.624Z,35.65
2022-11-29T03:55:46.656Z,36.85
2022-11-29T03:58:14.078Z,33.50
2022-11-29T04:00:47.506Z,35.83
2022-11-29T04:03:22.680Z,34.03
2022-11-29T04:05:55.201Z,33.20
2022-11-29T04:08:22.496Z,42.08
2022-11-29T04:10:52.828Z,35.83
2022-11-29T04:13:20.172Z,40.53
2022-11-29T04:15:56.691Z,41.65
2022-11-29T04:18:39.041Z,35.67
2022-11-29T04:21:21.735Z,38.90
2022-11-29T04:24:00.918Z,37.15
2022-11-29T04:26:38.152Z,45.63
2022-11-29T04:29:08.370Z,35.20
2022-11-29T04:31:47.807Z,40.85
2022-11-29T04:34:27.327Z,39.75
2022-11-29T04:37:08.178Z,36.28
2022-11-29T04:39:50.481Z,39.30
2022-11-29T04:45:03.656Z,44.22
2022-11-29T04:47:31.345Z,42.10
2022-11-29T04:50:10.667Z,42.40
2022-11-29T04:52:38.377Z,49.65
2022-11-29T04:55:30.718Z,40.95
2022-11-29T04:58:20.950Z,40.33
2022-11-29T05:00:54.502Z,47.05
2022-11-29T05:03:31.177Z,41.58
2022-11-29T05:06:20.030Z,48.05
2022-11-29T05:08:54.824Z,40.25
2022-11-29T05:11:28.313Z,44.97
2022-11-29T05:13:58.798Z,42.88
2022-11-29T05:16:44.667Z,40.90
2022-11-29T05:19:29.147Z,44.25
2022-11-29T05:21:59.330Z,44.38
2022-11-29T05:24:45.735Z,42.13
2022-11-29T05:27:18.098Z,43.08
2022-11-29T05:32:31.332Z,45.95
2022-11-29T05:35:13.901Z,40.58
2022-11-29T05:38:16.471Z,39.10
2022-11-29T05:40:46.172Z,38.45
2022-11-29T05:43:32.044Z,40.38
2022-11-29T05:46:08.606Z,45.30
2022-11-29T05:48:38.716Z,39.08
2022-11-29T05:51:25.021Z,42.33
2022-11-29T05:54:04.136Z,43.15
2022-11-29T05:56:45.792Z,42.63
2022-11-29T05:59:15.395Z,47.50
2022-11-29T06:01:48.802Z,44.63
2022-11-29T06:04:16.158Z,40.85
2022-11-29T06:06:46.903Z,45.25
2022-11-29T06:09:26.888Z,44.05
2022-11-29T06:12:00.785Z,43.50
2022-11-29T06:14:41.461Z,43.72
2022-11-29T06:17:19.485Z,38.90
2022-11-29T06:19:49.709Z,42.20
2022-11-29T06:22:20.056Z,39.95
2022-11-29T06:25:02.423Z,40.78
2022-11-29T06:27:32.788Z,41.42
2022-11-29T06:30:02.909Z,41.22
2022-11-29T06:32:49.399Z,40.20
2022-11-29T06:35:32.391Z,42.47
2022-11-29T06:38:03.166Z,44.92
2022-11-29T06:43:50.653Z,38.75
2022-11-29T06:46:20.869Z,45.53
2022-11-29T06:48:56.606Z,40.10
2022-11-29T06:51:46.377Z,45.63
2022-11-29T06:54:23.610Z,46.08
2022-11-29T06:57:11.234Z,46.80
2022-11-29T06:59:47.779Z,42.70
2022-11-29T07:05:31.102Z,45.40
2022-11-29T07:08:02.233Z,37.95
2022-11-29T07:17:23.689Z,49.50
2022-11-29T07:20:09.830Z,47.20
2022-11-29T07:22:40.564Z,46.10
2022-11-29T07:25:26.613Z,45.58
2022-11-29T07:28:12.196Z,40.35
2022-11-29T07:30:51.485Z,37.58
2022-11-29T07:33:37.597Z,46.40
2022-11-29T07:36:23.200Z,37.42
2022-11-29T07:42:29.228Z,35.58
2022-11-29T07:45:02.720Z,43.05
2022-11-29T07:47:35.347Z,43.33
2022-11-29T07:50:03.912Z,43.20
2022-11-29T07:52:31.299Z,41.15
2022-11-29T07:54:58.967Z,37.92
2022-11-29T07:57:26.339Z,37.20
2022-11-29T07:59:53.905Z,46.38
2022-11-29T08:02:30.962Z,41.72
2022-11-29T08:04:58.748Z,36.83
2022-11-29T08:07:26.176Z,41.92
2022-11-29T08:09:54.000Z,36.97
2022-11-29T08:12:21.334Z,47.55
2022-11-29T08:14:49.012Z,44.42
2022-11-29T08:17:16.426Z,39.42
2022-11-29T08:19:44.285Z,38.30
2022-11-29T08:22:12.449Z,38.50
2022-11-29T08:24:40.114Z,37.72
2022-11-29T08:27:07.441Z,38.00
2022-11-29T08:29:35.124Z,40.40
2022-11-29T08:39:05.985Z,36.20
2022-11-29T08:41:35.012Z,39.97
2022-11-29T08:44:04.236Z,40.47
2022-11-29T08:46:31.646Z,41.20
2022-11-29T08:48:59.337Z,34.90
2022-11-29T08:51:26.639Z,39.95
2022-11-29T08:53:54.277Z,36.47
2022-11-29T08:57:10.209Z,41.25
2022-11-29T08:59:09.219Z,41.85
2022-11-29T09:01:36.630Z,40.90
2022-11-29T09:04:04.367Z,39.13
2022-11-29T09:06:32.836Z,40.80
2022-11-29T09:09:27.733Z,34.63
2022-11-29T09:11:55.102Z,45.33
2022-11-29T09:14:22.800Z,50.83
2022-11-29T09:16:50.190Z,44.80
2022-11-29T09:19:17.805Z,44.25
2022-11-29T09:21:45.136Z,40.13
2022-11-29T09:24:13.072Z,39.95
2022-11-29T09:26:40.444Z,45.75
2022-11-29T09:29:08.720Z,35.72
2022-11-29T09:31:36.105Z,38.42
2022-11-29T09:34:04.099Z,40.97
2022-11-29T09:36:31.571Z,42.00
2022-11-29T09:39:00.700Z,46.13
2022-11-29T09:41:36.909Z,43.45
2022-11-29T09:44:04.482Z,43.95
2022-11-29T09:46:31.807Z,39.33
2022-11-29T09:48:59.382Z,42.20
2022-11-29T09:51:45.330Z,44.67
2022-11-29T09:54:12.990Z,45.17
2022-11-29T09:56:51.659Z,40.90
2022-11-29T09:59:27.518Z,44.95
2022-11-29T10:01:58.690Z,41.50
2022-11-29T10:04:29.332Z,57.77
2022-11-29T10:07:05.390Z,41.78
2022-11-29T10:09:34.118Z,34.85
2022-11-29T10:15:44.388Z,39.83
2022-11-29T10:18:23.707Z,40.78
2022-11-29T10:20:52.401Z,38.50
2022-11-29T10:23:22.839Z,38.00
2022-11-29T10:25:51.832Z,40.45
2022-11-29T10:28:21.402Z,38.28
2022-11-29T10:30:50.340Z,38.38
2022-11-29T10:33:20.215Z,35.55
2022-11-29T10:35:48.412Z,30.58
2022-11-29T10:38:30.881Z,41.63
2022-11-29T10:41:05.810Z,38.85
2022-11-29T10:43:33.506Z,43.42
2022-11-29T10:46:00.968Z,41.05
2022-11-29T10:48:30.200Z,34.55
2022-11-29T10:50:57.874Z,39.45
2022-11-29T10:53:27.221Z,31.27
2022-11-29T10:59:24.152Z,37.58
2022-11-29T11:01:52.056Z,40.22
2022-11-29T11:04:27.327Z,36.58
2022-11-29T11:06:56.827Z,41.03
2022-11-29T11:09:30.029Z,35.45
2022-11-29T11:11:58.700Z,32.03
2022-11-29T11:14:36.678Z,39.50
2022-11-29T11:17:24.040Z,42.25
2022-11-29T11:20:00.407Z,36.72
2022-11-29T11:22:29.518Z,42.85
2022-11-29T11:25:01.654Z,42.08
2022-11-29T11:27:33.878Z,40.60
2022-11-29T11:30:02.366Z,35.47
2022-11-29T11:32:30.199Z,47.10
2022-11-29T11:34:59.492Z,31.13
2022-11-29T11:37:28.902Z,28.58
2022-11-29T11:39:57.515Z,35.60
2022-11-29T11:42:28.702Z,43.35
2022-11-29T11:44:56.094Z,38.63
2022-11-29T11:47:25.134Z,36.28
2022-11-29T11:50:01.584Z,29.83
2022-11-29T11:52:50.876Z,38.20
2022-11-29T11:55:21.089Z,29.92
2022-11-29T11:57:57.642Z,27.48
2022-11-29T12:01:03.007Z,29.08
2022-11-29T12:03:32.403Z,34.78
2022-11-29T12:06:18.252Z,30.15
2022-11-29T12:08:47.494Z,30.15
2022-11-29T12:11:17.136Z,34.65
2022-11-29T12:13:47.765Z,29.08
2022-11-29T12:16:19.131Z,26.00
2022-11-29T12:22:48.331Z,28.45
2022-11-29T12:25:27.131Z,27.77
2022-11-29T12:27:54.562Z,24.42
2022-11-29T12:30:22.230Z,29.45
2022-11-29T12:32:55.790Z,30.35
2022-11-29T12:35:23.439Z,36.03
2022-11-29T12:38:09.320Z,43.50
2022-11-29T12:40:39.676Z,25.83
2022-11-29T12:43:15.928Z,25.35
2022-11-29T12:45:58.203Z,25.73
2022-11-29T12:48:33.994Z,63.80
2022-11-29T12:51:16.305Z,29.42
2022-11-29T12:53:53.729Z,33.45
2022-11-29T12:56:26.672Z,28.55
2022-11-29T12:58:59.893Z,24.38
2022-11-29T13:01:46.124Z,27.45
2022-11-29T13:04:22.477Z,23.23
2022-11-29T13:07:05.668Z,26.50
2022-11-29T13:09:44.510Z,23.02
2022-11-29T13:12:12.177Z,22.50
2022-11-29T13:14:50.877Z,27.13
2022-11-29T13:17:18.524Z,33.25
2022-11-29T13:20:16.428Z,26.23
2022-11-29T13:22:52.193Z,26.88
2022-11-29T13:25:28.731Z,22.45
2022-11-29T13:27:59.963Z,31.45
2022-11-29T13:30:27.347Z,24.73
2022-11-29T13:32:58.204Z,28.30
2022-11-29T13:35:41.809Z,28.95
2022-11-29T13:38:27.940Z,27.55
2022-11-29T13:41:13.895Z,29.73
2022-11-29T13:43:45.560Z,28.05
2022-11-29T13:46:19.746Z,26.33
2022-11-29T13:48:48.937Z,33.22
2022-11-29T13:51:23.720Z,30.95
2022-11-29T13:53:51.589Z,35.47
2022-11-29T13:56:35.626Z,37.75
2022-11-29T13:59:07.756Z,30.35
2022-11-29T14:01:43.498Z,28.38
2022-11-29T14:04:25.619Z,31.65
2022-11-29T14:07:06.691Z,31.25
2022-11-29T14:09:37.117Z,30.70
2022-11-29T14:12:17.599Z,26.30
2022-11-29T14:14:50.763Z,23.27
2022-11-29T14:20:39.937Z,27.73
2022-11-29T14:23:07.214Z,26.70
2022-11-29T14:25:51.208Z,30.67
2022-11-29T14:28:22.423Z,31.83
2022-11-29T14:31:12.775Z,32.80
2022-11-29T14:33:55.340Z,44.35
2022-11-29T14:39:56.772Z,30.95
2022-11-29T14:42:27.162Z,26.20
2022-11-29T14:48:27.354Z,24.42
2022-11-29T14:51:13.342Z,20.27
2022-11-29T14:53:41.457Z,24.25
2022-11-29T14:56:27.852Z,20.00
2022-11-29T14:59:13.750Z,27.48
2022-11-29T15:01:45.530Z,29.35
2022-11-29T15:04:13.348Z,30.00
2022-11-29T15:06:47.478Z,24.20
2022-11-29T15:09:22.584Z,23.98
2022-11-29T15:11:57.623Z,28.17
2022-11-29T15:14:24.995Z,22.38
2022-11-29T15:20:24.543Z,28.45
2022-11-29T15:26:24.158Z,25.10
2022-11-29T15:28:51.946Z,24.90
2022-11-29T15:31:22.510Z,24.10
2022-11-29T15:33:50.403Z,26.15
2022-11-29T15:36:18.850Z,25.33
2022-11-29T15:38:47.895Z,28.15
2022-11-29T15:41:26.056Z,25.95
2022-11-29T15:43:57.126Z,24.38
2022-11-29T15:46:25.780Z,26.85
2022-11-29T15:48:53.754Z,22.30
2022-11-29T15:51:31.297Z,24.48
2022-11-29T15:54:11.712Z,19.90
2022-11-29T15:56:45.663Z,24.42
2022-11-29T15:59:41.409Z,21.75
2022-11-29T16:08:49.613Z,24.52
2022-11-29T16:11:19.812Z,20.88
2022-11-29T16:13:58.978Z,22.42
2022-11-29T16:16:27.229Z,22.45
2022-11-29T16:19:07.920Z,23.02
2022-11-29T16:21:35.579Z,25.00
2022-11-29T16:24:13.425Z,24.58
2022-11-29T16:26:43.351Z,22.25
2022-11-29T16:29:20.643Z,21.60
2022-11-29T16:31:48.328Z,23.45
2022-11-29T16:34:41.797Z,19.83
2022-11-29T16:37:23.222Z,23.90
2022-11-29T16:39:51.893Z,22.67
2022-11-29T16:42:26.793Z,24.48
2022-11-29T16:45:00.116Z,27.00
2022-11-29T16:47:31.611Z,27.02
2022-11-29T16:50:01.754Z,28.58
2022-11-29T16:52:31.501Z,29.33
2022-11-29T16:54:58.857Z,33.42
2022-11-29T16:57:27.286Z,47.38
2022-11-29T16:59:54.615Z,76.13
2022-11-29T17:02:22.467Z,57.85
2022-11-29T17:04:50.695Z,66.22
2022-11-29T17:07:22.159Z,66.75
2022-11-29T17:09:49.542Z,68.20
2022-11-29T17:12:33.309Z,75.70
2022-11-29T17:15:00.719Z,74.13
2022-11-29T17:20:56.789Z,99.65
2022-11-29T17:23:24.440Z,86.78
2022-11-29T17:26:02.189Z,100.70
2022-11-29T17:28:29.813Z,105.20
2022-11-29T17:30:57.128Z,122.57
2022-11-29T17:33:24.793Z,96.53
2022-11-29T17:35:52.154Z,92.70
2022-11-29T17:38:19.746Z,73.90
2022-11-29T17:40:47.087Z,68.05
2022-11-29T17:43:14.675Z,69.88
2022-11-29T17:45:42.041Z,65.28
2022-11-29T17:48:09.680Z,63.72
2022-11-29T17:50:38.061Z,74.57
2022-11-29T17:53:05.680Z,68.35
2022-11-29T17:55:33.018Z,89.63
2022-11-29T17:58:00.658Z,122.70
2022-11-29T18:00:28.014Z,139.65
2022-11-29T18:02:55.626Z,126.50
2022-11-29T18:05:22.950Z,102.50
2022-11-29T18:07:50.658Z,82.30
2022-11-29T18:10:17.985Z,100.05
2022-11-29T18:12:45.600Z,71.47
2022-11-29T18:15:12.978Z,72.32
2022-11-29T18:17:40.612Z,64.60
2022-11-29T18:20:08.170Z,71.28
2022-11-29T18:22:35.761Z,90.78
2022-11-29T18:25:36.470Z,77.63
2022-11-29T18:27:50.831Z,79.30
2022-11-29T18:30:18.221Z,58.50
2022-11-29T18:32:45.834Z,58.67
2022-11-29T18:35:13.183Z,74.97
2022-11-29T18:38:13.544Z,69.65
2022-11-29T18:40:28.121Z,59.05
2022-11-29T18:42:55.746Z,51.78
2022-11-29T18:45:23.095Z,67.82
2022-11-29T18:47:50.755Z,56.30
2022-11-29T18:50:18.061Z,59.25
2022-11-29T18:52:45.651Z,57.17
2022-11-29T18:55:12.968Z,55.65
2022-11-29T18:57:40.672Z,53.42
2022-11-29T19:00:08.387Z,61.47
2022-11-29T19:02:52.148Z,51.85
2022-11-29T19:05:19.537Z,55.65
2022-11-29T19:11:19.594Z,55.65
2022-11-29T19:13:47.684Z,56.08
2022-11-29T19:16:16.837Z,57.03
2022-11-29T19:18:45.027Z,56.08
2022-11-29T19:21:16.234Z,52.20
2022-11-29T19:23:44.303Z,59.40
2022-11-29T19:26:12.846Z,58.22
2022-11-29T19:28:41.595Z,57.00
2022-11-29T19:31:10.215Z,51.20
2022-11-29T19:33:38.626Z,62.33
2022-11-29T19:36:19.010Z,55.22
2022-11-29T19:38:52.987Z,65.25
2022-11-29T19:41:20.922Z,59.53
2022-11-29T19:43:49.060Z,64.50
2022-11-29T19:46:17.798Z,66.75
2022-11-29T19:48:45.709Z,65.72
2022-11-29T19:51:13.719Z,63.28
2022-11-29T19:53:41.368Z,67.70
2022-11-29T19:56:10.532Z,76.38
2022-11-29T19:58:38.139Z,74.47
2022-11-29T20:01:06.351Z,77.57
2022-11-29T20:03:33.994Z,84.82
2022-11-29T20:06:01.709Z,73.75
2022-11-29T20:08:29.650Z,68.07
2022-11-29T20:11:04.097Z,73.70
2022-11-29T20:13:31.895Z,64.63
2022-11-29T20:16:03.442Z,71.75
2022-11-29T20:18:31.901Z,71.03
2022-11-29T20:21:21.665Z,73.38
2022-11-29T20:23:49.694Z,73.18
2022-11-29T20:26:17.997Z,77.63
2022-11-29T20:28:46.610Z,83.60
2022-11-29T20:31:15.673Z,103.18
2022-11-29T20:33:44.263Z,80.00
2022-11-29T20:36:11.642Z,73.00
2022-11-29T20:38:51.143Z,81.82
2022-11-29T20:41:24.231Z,77.03
2022-11-29T20:43:59.369Z,98.57
2022-11-29T20:46:26.835Z,86.95
2022-11-29T20:48:55.119Z,119.68
2022-11-29T20:51:26.259Z,81.60
2022-11-29T20:53:53.918Z,90.55
2022-11-29T20:56:21.265Z,78.82
2022-11-29T20:58:48.835Z,97.93
2022-11-29T21:01:16.324Z,98.32
2022-11-29T21:03:44.004Z,97.68
2022-11-29T21:06:11.465Z,103.80
2022-11-29T21:08:39.031Z,94.70
2022-11-29T21:11:07.690Z,106.18
2022-11-29T21:13:35.473Z,89.97
2022-11-29T21:16:03.218Z,81.25
2022-11-29T21:18:31.246Z,102.63
2022-11-29T21:20:58.585Z,105.38
2022-11-29T21:23:46.844Z,107.28
2022-11-29T21:26:20.387Z,93.00
2022-11-29T21:28:59.698Z,91.97
2022-11-29T21:31:27.274Z,98.47
2022-11-29T21:33:55.008Z,103.10
2022-11-29T21:36:25.017Z,104.10
2022-11-29T21:38:55.265Z,105.57
2022-11-29T21:41:23.159Z,108.20
2022-11-29T21:44:06.165Z,101.55
2022-11-29T21:46:34.783Z,103.03
2022-11-29T21:49:02.466Z,106.82
2022-11-29T21:51:29.851Z,109.65
2022-11-29T21:53:57.423Z,108.13
2022-11-29T21:56:24.736Z,101.43
2022-11-29T21:58:52.411Z,103.45
2022-11-29T22:01:20.181Z,96.05
2022-11-29T22:04:09.700Z,108.28
2022-11-29T22:06:37.028Z,135.35
2022-11-29T22:09:04.860Z,108.13
2022-11-29T22:11:32.262Z,101.63
2022-11-29T22:14:01.132Z,81.70
2022-11-29T22:19:55.948Z,90.32
2022-11-29T22:22:27.097Z,99.00
2022-11-29T22:27:22.733Z,114.97
2022-11-29T22:29:50.364Z,112.80
2022-11-29T22:32:17.778Z,109.55
2022-11-29T22:34:45.655Z,95.85
2022-11-29T22:37:15.345Z,85.45
2022-11-29T22:39:42.914Z,89.90
2022-11-29T22:42:10.255Z,96.57
2022-11-29T22:44:37.857Z,87.70
2022-11-29T22:47:05.244Z,98.80
2022-11-29T22:49:32.952Z,97.00
2022-11-29T22:52:00.321Z,97.68
2022-11-29T22:54:28.058Z,85.07
2022-11-29T22:56:55.403Z,89.20
2022-11-29T22:59:23.030Z,95.13
2022-11-29T23:01:50.489Z,99.88
2022-11-29T23:04:18.150Z,91.47
2022-11-29T23:06:45.749Z,101.20
2022-11-29T23:09:14.938Z,95.28
2022-11-29T23:11:43.073Z,92.82
2022-11-29T23:14:10.744Z,96.25
2022-11-29T23:16:38.248Z,103.13
2022-11-29T23:19:05.906Z,87.05
2022-11-29T23:21:34.687Z,93.95
2022-11-29T23:24:02.512Z,99.30
2022-11-29T23:26:32.624Z,98.57
2022-11-29T23:29:00.233Z,98.63
2022-11-29T23:31:29.168Z,98.22
2022-11-29T23:33:56.758Z,96.72
2022-11-29T23:36:24.197Z,96.72
2022-11-29T23:38:51.872Z,92.28
2022-11-29T23:41:19.294Z,89.78
2022-11-29T23:43:46.988Z,84.13
2022-11-29T23:46:16.231Z,93.97
2022-11-29T23:48:43.989Z,86.78
2022-11-29T23:51:11.912Z,90.63
2022-11-29T23:53:39.973Z,97.07
2022-11-29T23:56:12.529Z,92.18
2022-11-29T23:58:40.212Z,101.68
